Creston, Washington
Current Conditions -  °F | °C
As of 1:58 AM on Thursday 23 Oct 2014 (Local Time) from KSKA Reporting Station
Moderate Rain Moderate Rain  
Wind Chill: 52°   Ceiling: 4300
Heat Index: 52°   Visibility: 10mi
Dew Point: 46°   Wind: 15mph
Humidity: 80%   Direction: 170°S
Pressure: 29.76"   Gusts: NA
Location:  47.76°N, 118.52°W
Report Text: KSKA 230858Z AUTO 17013KT 10SM RA FEW011 BKN043 BKN050 OVC060 11/08 A2976 RMK AO2 RAB0853 SLP079 P0001 60001 T01100077 53004
Loading
Personal Weather Stations






























Interactive Weather Map
Tropical Storm Tracking
New forecast layout! Learn more

10-Day Weather Forecast

Advertisements
Track Severe Weather on mobile